sensor_id;sensor_type;location;lat;lon;timestamp;P1;durP1;ratioP1;P2;durP2;ratioP2
19032;SDS011;9649;51.042;13.804;2024-01-11T00:04:19;53.37;;;19.30;;
19032;SDS011;9649;51.042;13.804;2024-01-11T00:09:23;46.77;;;18.57;;
19032;SDS011;9649;51.042;13.804;2024-01-11T00:14:26;46.40;;;18.53;;
19032;SDS011;9649;51.042;13.804;2024-01-11T00:19:29;48.07;;;19.07;;
19032;SDS011;9649;51.042;13.804;2024-01-11T00:24:33;48.67;;;19.03;;
19032;SDS011;9649;51.042;13.804;2024-01-11T00:29:40;46.27;;;18.47;;
19032;SDS011;9649;51.042;13.804;2024-01-11T00:34:42;45.40;;;18.17;;
19032;SDS011;9649;51.042;13.804;2024-01-11T00:39:48;45.13;;;17.63;;
19032;SDS011;9649;51.042;13.804;2024-01-11T00:44:51;41.47;;;17.30;;
19032;SDS011;9649;51.042;13.804;2024-01-11T00:49:54;43.07;;;16.67;;
19032;SDS011;9649;51.042;13.804;2024-01-11T00:54:59;45.53;;;16.87;;
19032;SDS011;9649;51.042;13.804;2024-01-11T01:00:01;43.53;;;17.47;;
19032;SDS011;9649;51.042;13.804;2024-01-11T01:05:05;44.37;;;17.03;;
19032;SDS011;9649;51.042;13.804;2024-01-11T01:10:09;43.60;;;17.33;;
19032;SDS011;9649;51.042;13.804;2024-01-11T01:15:12;41.77;;;17.67;;
19032;SDS011;9649;51.042;13.804;2024-01-11T01:20:15;51.67;;;17.97;;
19032;SDS011;9649;51.042;13.804;2024-01-11T01:25:20;40.93;;;16.63;;
19032;SDS011;9649;51.042;13.804;2024-01-11T01:30:23;37.83;;;15.70;;
19032;SDS011;9649;51.042;13.804;2024-01-11T01:35:25;32.60;;;14.87;;
19032;SDS011;9649;51.042;13.804;2024-01-11T01:40:30;34.67;;;14.40;;
19032;SDS011;9649;51.042;13.804;2024-01-11T01:45:33;34.77;;;14.00;;
19032;SDS011;9649;51.042;13.804;2024-01-11T01:50:36;35.90;;;14.77;;
19032;SDS011;9649;51.042;13.804;2024-01-11T01:55:40;34.63;;;14.60;;
19032;SDS011;9649;51.042;13.804;2024-01-11T02:00:43;38.03;;;14.23;;
19032;SDS011;9649;51.042;13.804;2024-01-11T02:05:46;40.63;;;15.60;;
19032;SDS011;9649;51.042;13.804;2024-01-11T02:10:51;39.23;;;14.83;;
19032;SDS011;9649;51.042;13.804;2024-01-11T02:15:54;39.57;;;15.37;;
19032;SDS011;9649;51.042;13.804;2024-01-11T02:20:57;43.97;;;15.77;;
19032;SDS011;9649;51.042;13.804;2024-01-11T02:26:01;36.57;;;15.10;;
19032;SDS011;9649;51.042;13.804;2024-01-11T02:31:04;36.30;;;14.67;;
19032;SDS011;9649;51.042;13.804;2024-01-11T02:36:07;36.97;;;14.57;;
19032;SDS011;9649;51.042;13.804;2024-01-11T02:41:11;34.30;;;14.27;;
19032;SDS011;9649;51.042;13.804;2024-01-11T02:46:16;37.97;;;15.17;;
19032;SDS011;9649;51.042;13.804;2024-01-11T02:51:19;32.77;;;13.87;;
19032;SDS011;9649;51.042;13.804;2024-01-11T02:56:23;36.63;;;15.03;;
19032;SDS011;9649;51.042;13.804;2024-01-11T03:01:26;34.40;;;13.90;;
19032;SDS011;9649;51.042;13.804;2024-01-11T03:06:29;34.13;;;14.00;;
19032;SDS011;9649;51.042;13.804;2024-01-11T03:11:33;34.87;;;14.07;;
19032;SDS011;9649;51.042;13.804;2024-01-11T03:16:36;32.53;;;13.27;;
19032;SDS011;9649;51.042;13.804;2024-01-11T03:21:41;36.40;;;14.90;;
19032;SDS011;9649;51.042;13.804;2024-01-11T03:26:45;34.43;;;13.67;;
19032;SDS011;9649;51.042;13.804;2024-01-11T03:31:50;31.60;;;13.33;;
19032;SDS011;9649;51.042;13.804;2024-01-11T03:36:52;31.87;;;12.87;;
19032;SDS011;9649;51.042;13.804;2024-01-11T03:41:56;40.20;;;14.60;;
19032;SDS011;9649;51.042;13.804;2024-01-11T03:46:59;33.47;;;13.80;;
19032;SDS011;9649;51.042;13.804;2024-01-11T03:52:02;34.57;;;12.97;;
19032;SDS011;9649;51.042;13.804;2024-01-11T03:57:06;34.20;;;13.60;;
19032;SDS011;9649;51.042;13.804;2024-01-11T04:02:09;38.20;;;14.17;;
19032;SDS011;9649;51.042;13.804;2024-01-11T04:07:12;29.10;;;12.00;;
19032;SDS011;9649;51.042;13.804;2024-01-11T04:12:16;33.43;;;11.77;;
19032;SDS011;9649;51.042;13.804;2024-01-11T04:17:19;32.37;;;12.53;;
19032;SDS011;9649;51.042;13.804;2024-01-11T04:22:22;33.67;;;13.43;;
19032;SDS011;9649;51.042;13.804;2024-01-11T04:27:26;32.70;;;12.73;;
19032;SDS011;9649;51.042;13.804;2024-01-11T04:32:29;35.73;;;13.30;;
19032;SDS011;9649;51.042;13.804;2024-01-11T04:37:32;31.73;;;12.80;;
19032;SDS011;9649;51.042;13.804;2024-01-11T04:42:37;34.00;;;12.73;;
19032;SDS011;9649;51.042;13.804;2024-01-11T04:47:40;31.03;;;13.00;;
19032;SDS011;9649;51.042;13.804;2024-01-11T04:52:43;34.63;;;13.90;;
19032;SDS011;9649;51.042;13.804;2024-01-11T04:57:47;35.17;;;13.63;;
19032;SDS011;9649;51.042;13.804;2024-01-11T05:02:50;33.17;;;13.27;;
19032;SDS011;9649;51.042;13.804;2024-01-11T05:07:53;34.67;;;14.27;;
19032;SDS011;9649;51.042;13.804;2024-01-11T05:12:57;34.07;;;13.20;;
19032;SDS011;9649;51.042;13.804;2024-01-11T05:18:00;33.73;;;13.43;;
19032;SDS011;9649;51.042;13.804;2024-01-11T05:23:03;33.40;;;14.17;;
19032;SDS011;9649;51.042;13.804;2024-01-11T05:28:07;33.23;;;12.47;;
19032;SDS011;9649;51.042;13.804;2024-01-11T05:33:10;33.10;;;12.47;;
19032;SDS011;9649;51.042;13.804;2024-01-11T05:38:13;35.90;;;13.43;;
19032;SDS011;9649;51.042;13.804;2024-01-11T05:43:17;34.20;;;13.27;;
19032;SDS011;9649;51.042;13.804;2024-01-11T05:48:20;30.27;;;11.97;;
19032;SDS011;9649;51.042;13.804;2024-01-11T05:53:23;29.73;;;12.20;;
19032;SDS011;9649;51.042;13.804;2024-01-11T05:58:28;31.90;;;12.00;;
19032;SDS011;9649;51.042;13.804;2024-01-11T06:03:31;35.40;;;12.63;;
19032;SDS011;9649;51.042;13.804;2024-01-11T06:08:35;26.90;;;12.60;;
19032;SDS011;9649;51.042;13.804;2024-01-11T06:13:41;28.27;;;12.03;;
19032;SDS011;9649;51.042;13.804;2024-01-11T06:18:44;30.23;;;12.43;;
19032;SDS011;9649;51.042;13.804;2024-01-11T06:23:46;28.37;;;12.47;;
19032;SDS011;9649;51.042;13.804;2024-01-11T06:28:51;33.27;;;12.27;;
19032;SDS011;9649;51.042;13.804;2024-01-11T06:33:54;29.87;;;11.77;;
19032;SDS011;9649;51.042;13.804;2024-01-11T06:38:57;34.43;;;13.37;;
19032;SDS011;9649;51.042;13.804;2024-01-11T06:44:01;30.83;;;13.37;;
19032;SDS011;9649;51.042;13.804;2024-01-11T06:49:04;35.47;;;13.33;;
19032;SDS011;9649;51.042;13.804;2024-01-11T06:54:07;32.23;;;12.37;;
19032;SDS011;9649;51.042;13.804;2024-01-11T06:59:11;34.50;;;13.00;;
19032;SDS011;9649;51.042;13.804;2024-01-11T07:04:14;34.80;;;11.83;;
19032;SDS011;9649;51.042;13.804;2024-01-11T07:09:17;37.30;;;12.77;;
19032;SDS011;9649;51.042;13.804;2024-01-11T07:14:21;29.37;;;12.00;;
19032;SDS011;9649;51.042;13.804;2024-01-11T07:19:24;29.20;;;12.17;;
19032;SDS011;9649;51.042;13.804;2024-01-11T07:24:26;28.10;;;11.97;;
19032;SDS011;9649;51.042;13.804;2024-01-11T07:29:39;31.93;;;12.57;;
19032;SDS011;9649;51.042;13.804;2024-01-11T07:34:43;27.57;;;11.53;;
19032;SDS011;9649;51.042;13.804;2024-01-11T07:39:46;30.03;;;12.37;;
19032;SDS011;9649;51.042;13.804;2024-01-11T07:44:50;29.17;;;12.20;;
19032;SDS011;9649;51.042;13.804;2024-01-11T07:49:53;30.03;;;12.43;;
19032;SDS011;9649;51.042;13.804;2024-01-11T07:54:55;27.50;;;11.10;;
19032;SDS011;9649;51.042;13.804;2024-01-11T08:00:02;31.07;;;11.50;;
19032;SDS011;9649;51.042;13.804;2024-01-11T08:05:08;31.70;;;12.90;;
19032;SDS011;9649;51.042;13.804;2024-01-11T08:10:11;25.90;;;11.40;;
19032;SDS011;9649;51.042;13.804;2024-01-11T08:15:15;27.03;;;12.00;;
19032;SDS011;9649;51.042;13.804;2024-01-11T08:20:18;34.17;;;13.17;;
19032;SDS011;9649;51.042;13.804;2024-01-11T08:25:21;34.57;;;12.93;;
19032;SDS011;9649;51.042;13.804;2024-01-11T08:30:26;31.27;;;12.47;;
19032;SDS011;9649;51.042;13.804;2024-01-11T08:35:29;28.83;;;13.57;;
19032;SDS011;9649;51.042;13.804;2024-01-11T08:40:33;29.77;;;12.93;;
19032;SDS011;9649;51.042;13.804;2024-01-11T08:45:37;30.63;;;14.00;;
19032;SDS011;9649;51.042;13.804;2024-01-11T08:50:40;24.87;;;11.70;;
19032;SDS011;9649;51.042;13.804;2024-01-11T08:55:43;24.73;;;11.53;;
19032;SDS011;9649;51.042;13.804;2024-01-11T09:00:49;19.20;;;10.57;;
19032;SDS011;9649;51.042;13.804;2024-01-11T09:05:52;22.47;;;12.17;;
19032;SDS011;9649;51.042;13.804;2024-01-11T09:10:58;23.33;;;12.23;;
19032;SDS011;9649;51.042;13.804;2024-01-11T09:16:03;29.47;;;14.37;;
19032;SDS011;9649;51.042;13.804;2024-01-11T09:21:08;25.80;;;13.53;;
19032;SDS011;9649;51.042;13.804;2024-01-11T09:26:10;27.30;;;13.60;;
19032;SDS011;9649;51.042;13.804;2024-01-11T09:31:16;30.77;;;16.37;;
19032;SDS011;9649;51.042;13.804;2024-01-11T09:36:18;32.10;;;16.63;;
19032;SDS011;9649;51.042;13.804;2024-01-11T09:41:21;36.20;;;17.67;;
19032;SDS011;9649;51.042;13.804;2024-01-11T09:46:26;41.83;;;20.10;;
19032;SDS011;9649;51.042;13.804;2024-01-11T09:51:30;45.83;;;22.20;;
19032;SDS011;9649;51.042;13.804;2024-01-11T09:56:34;51.03;;;24.50;;
19032;SDS011;9649;51.042;13.804;2024-01-11T10:01:39;50.60;;;24.30;;
19032;SDS011;9649;51.042;13.804;2024-01-11T10:06:42;51.77;;;22.77;;
19032;SDS011;9649;51.042;13.804;2024-01-11T10:11:45;45.83;;;22.47;;
19032;SDS011;9649;51.042;13.804;2024-01-11T10:16:51;47.73;;;23.70;;
19032;SDS011;9649;51.042;13.804;2024-01-11T10:21:56;50.53;;;23.77;;
19032;SDS011;9649;51.042;13.804;2024-01-11T10:27:00;57.20;;;24.43;;
19032;SDS011;9649;51.042;13.804;2024-01-11T10:32:06;55.90;;;25.87;;
19032;SDS011;9649;51.042;13.804;2024-01-11T10:37:11;57.23;;;25.27;;
19032;SDS011;9649;51.042;13.804;2024-01-11T10:42:14;58.63;;;24.77;;
19032;SDS011;9649;51.042;13.804;2024-01-11T10:47:21;68.53;;;28.97;;
19032;SDS011;9649;51.042;13.804;2024-01-11T10:52:37;62.93;;;29.03;;
19032;SDS011;9649;51.042;13.804;2024-01-11T10:57:45;65.70;;;30.57;;
19032;SDS011;9649;51.042;13.804;2024-01-11T11:02:52;57.75;;;30.60;;
19032;SDS011;9649;51.042;13.804;2024-01-11T11:07:56;59.43;;;33.20;;
19032;SDS011;9649;51.042;13.804;2024-01-11T11:13:01;63.90;;;33.00;;
19032;SDS011;9649;51.042;13.804;2024-01-11T11:18:06;66.93;;;34.13;;
19032;SDS011;9649;51.042;13.804;2024-01-11T11:23:10;67.30;;;33.30;;
19032;SDS011;9649;51.042;13.804;2024-01-11T11:28:16;63.87;;;33.03;;
19032;SDS011;9649;51.042;13.804;2024-01-11T11:33:22;64.97;;;32.87;;
19032;SDS011;9649;51.042;13.804;2024-01-11T11:38:26;66.80;;;33.70;;
19032;SDS011;9649;51.042;13.804;2024-01-11T11:43:30;58.28;;;33.22;;
19032;SDS011;9649;51.042;13.804;2024-01-11T11:48:53;55.80;;;31.95;;
19032;SDS011;9649;51.042;13.804;2024-01-11T11:53:57;58.42;;;33.28;;
19032;SDS011;9649;51.042;13.804;2024-01-11T11:59:04;55.80;;;32.08;;
19032;SDS011;9649;51.042;13.804;2024-01-11T12:04:10;59.50;;;31.40;;
19032;SDS011;9649;51.042;13.804;2024-01-11T12:09:17;58.97;;;31.87;;
19032;SDS011;9649;51.042;13.804;2024-01-11T12:14:22;60.40;;;29.10;;
19032;SDS011;9649;51.042;13.804;2024-01-11T12:19:28;63.83;;;29.70;;
19032;SDS011;9649;51.042;13.804;2024-01-11T12:24:32;60.33;;;29.60;;
19032;SDS011;9649;51.042;13.804;2024-01-11T12:29:35;64.13;;;29.03;;
19032;SDS011;9649;51.042;13.804;2024-01-11T12:34:54;59.77;;;27.77;;
19032;SDS011;9649;51.042;13.804;2024-01-11T12:39:57;64.40;;;29.03;;
19032;SDS011;9649;51.042;13.804;2024-01-11T12:45:00;63.67;;;27.67;;
19032;SDS011;9649;51.042;13.804;2024-01-11T12:50:05;60.67;;;27.60;;
19032;SDS011;9649;51.042;13.804;2024-01-11T12:55:17;61.07;;;28.73;;
19032;SDS011;9649;51.042;13.804;2024-01-11T13:00:21;58.30;;;26.93;;
19032;SDS011;9649;51.042;13.804;2024-01-11T13:05:26;58.20;;;27.10;;
19032;SDS011;9649;51.042;13.804;2024-01-11T13:10:29;58.40;;;26.17;;
19032;SDS011;9649;51.042;13.804;2024-01-11T13:15:32;61.00;;;27.70;;
19032;SDS011;9649;51.042;13.804;2024-01-11T13:20:36;71.43;;;28.27;;
19032;SDS011;9649;51.042;13.804;2024-01-11T13:25:39;55.37;;;26.40;;
19032;SDS011;9649;51.042;13.804;2024-01-11T13:30:43;57.77;;;26.77;;
19032;SDS011;9649;51.042;13.804;2024-01-11T13:35:48;54.83;;;26.37;;
19032;SDS011;9649;51.042;13.804;2024-01-11T13:40:51;57.83;;;26.30;;
19032;SDS011;9649;51.042;13.804;2024-01-11T13:45:53;59.83;;;25.50;;
19032;SDS011;9649;51.042;13.804;2024-01-11T13:50:58;65.30;;;26.53;;
19032;SDS011;9649;51.042;13.804;2024-01-11T13:56:01;58.63;;;25.93;;
19032;SDS011;9649;51.042;13.804;2024-01-11T14:01:04;60.93;;;25.97;;
19032;SDS011;9649;51.042;13.804;2024-01-11T14:06:10;57.83;;;26.73;;
19032;SDS011;9649;51.042;13.804;2024-01-11T14:11:13;62.27;;;26.03;;
19032;SDS011;9649;51.042;13.804;2024-01-11T14:16:16;60.40;;;25.90;;
19032;SDS011;9649;51.042;13.804;2024-01-11T14:21:21;62.57;;;25.53;;
19032;SDS011;9649;51.042;13.804;2024-01-11T14:26:26;57.17;;;23.97;;
19032;SDS011;9649;51.042;13.804;2024-01-11T14:31:28;56.80;;;24.00;;
19032;SDS011;9649;51.042;13.804;2024-01-11T14:36:33;52.80;;;22.80;;
19032;SDS011;9649;51.042;13.804;2024-01-11T14:41:35;63.67;;;24.53;;
19032;SDS011;9649;51.042;13.804;2024-01-11T14:46:39;56.73;;;23.13;;
19032;SDS011;9649;51.042;13.804;2024-01-11T14:51:44;57.70;;;23.40;;
19032;SDS011;9649;51.042;13.804;2024-01-11T14:56:47;59.27;;;24.13;;
19032;SDS011;9649;51.042;13.804;2024-01-11T15:01:50;61.37;;;23.83;;
19032;SDS011;9649;51.042;13.804;2024-01-11T15:06:54;61.00;;;24.33;;
19032;SDS011;9649;51.042;13.804;2024-01-11T15:11:57;57.77;;;23.93;;
19032;SDS011;9649;51.042;13.804;2024-01-11T15:17:01;58.47;;;24.17;;
19032;SDS011;9649;51.042;13.804;2024-01-11T15:22:06;63.07;;;25.20;;
19032;SDS011;9649;51.042;13.804;2024-01-11T15:27:10;63.23;;;24.07;;
19032;SDS011;9649;51.042;13.804;2024-01-11T15:32:13;64.83;;;24.67;;
19032;SDS011;9649;51.042;13.804;2024-01-11T15:37:19;60.87;;;25.70;;
19032;SDS011;9649;51.042;13.804;2024-01-11T15:42:58;71.57;;;26.83;;
19032;SDS011;9649;51.042;13.804;2024-01-11T15:48:08;62.33;;;25.87;;
19032;SDS011;9649;51.042;13.804;2024-01-11T15:53:16;61.37;;;24.00;;
19032;SDS011;9649;51.042;13.804;2024-01-11T15:58:24;62.20;;;25.80;;
19032;SDS011;9649;51.042;13.804;2024-01-11T16:03:27;59.87;;;24.67;;
19032;SDS011;9649;51.042;13.804;2024-01-11T16:08:43;61.97;;;25.70;;
19032;SDS011;9649;51.042;13.804;2024-01-11T16:13:48;62.37;;;25.93;;
19032;SDS011;9649;51.042;13.804;2024-01-11T16:18:51;67.80;;;25.47;;
19032;SDS011;9649;51.042;13.804;2024-01-11T16:24:00;59.83;;;24.93;;
19032;SDS011;9649;51.042;13.804;2024-01-11T16:29:04;64.40;;;25.80;;
19032;SDS011;9649;51.042;13.804;2024-01-11T16:34:07;65.63;;;26.17;;
19032;SDS011;9649;51.042;13.804;2024-01-11T16:39:13;63.67;;;26.93;;
19032;SDS011;9649;51.042;13.804;2024-01-11T16:49:41;69.03;;;27.50;;
19032;SDS011;9649;51.042;13.804;2024-01-11T16:54:56;64.73;;;27.23;;
19032;SDS011;9649;51.042;13.804;2024-01-11T17:00:03;61.07;;;24.40;;
19032;SDS011;9649;51.042;13.804;2024-01-11T17:05:15;58.50;;;24.20;;
19032;SDS011;9649;51.042;13.804;2024-01-11T17:10:21;59.27;;;24.50;;
19032;SDS011;9649;51.042;13.804;2024-01-11T17:15:25;67.40;;;25.97;;
19032;SDS011;9649;51.042;13.804;2024-01-11T17:20:30;63.30;;;25.27;;
19032;SDS011;9649;51.042;13.804;2024-01-11T17:25:38;58.00;;;24.93;;
19032;SDS011;9649;51.042;13.804;2024-01-11T17:30:41;56.43;;;24.03;;
19032;SDS011;9649;51.042;13.804;2024-01-11T17:35:45;57.60;;;24.63;;
19032;SDS011;9649;51.042;13.804;2024-01-11T17:40:52;62.27;;;24.77;;
19032;SDS011;9649;51.042;13.804;2024-01-11T17:45:56;55.20;;;22.93;;
19032;SDS011;9649;51.042;13.804;2024-01-11T17:51:09;60.83;;;24.63;;
19032;SDS011;9649;51.042;13.804;2024-01-11T17:56:13;57.07;;;23.23;;
19032;SDS011;9649;51.042;13.804;2024-01-11T18:01:19;52.10;;;21.63;;
19032;SDS011;9649;51.042;13.804;2024-01-11T18:07:01;57.10;;;21.80;;
19032;SDS011;9649;51.042;13.804;2024-01-11T18:12:43;46.97;;;20.27;;
19032;SDS011;9649;51.042;13.804;2024-01-11T18:18:07;46.30;;;19.37;;
19032;SDS011;9649;51.042;13.804;2024-01-11T18:23:10;44.20;;;19.60;;
19032;SDS011;9649;51.042;13.804;2024-01-11T18:28:50;48.37;;;19.83;;
19032;SDS011;9649;51.042;13.804;2024-01-11T18:34:07;50.13;;;21.07;;
19032;SDS011;9649;51.042;13.804;2024-01-11T18:39:28;50.70;;;22.27;;
19032;SDS011;9649;51.042;13.804;2024-01-11T18:51:01;49.87;;;21.37;;
19032;SDS011;9649;51.042;13.804;2024-01-11T18:57:16;48.23;;;21.37;;
19032;SDS011;9649;51.042;13.804;2024-01-11T19:04:20;48.57;;;20.67;;
19032;SDS011;9649;51.042;13.804;2024-01-11T19:16:21;48.67;;;20.47;;
19032;SDS011;9649;51.042;13.804;2024-01-11T19:28:32;52.57;;;21.67;;
19032;SDS011;9649;51.042;13.804;2024-01-11T19:40:29;33.97;;;15.03;;
19032;SDS011;9649;51.042;13.804;2024-01-11T19:46:39;32.77;;;14.90;;
19032;SDS011;9649;51.042;13.804;2024-01-11T19:52:27;32.77;;;14.23;;
19032;SDS011;9649;51.042;13.804;2024-01-11T19:57:47;29.30;;;13.07;;
19032;SDS011;9649;51.042;13.804;2024-01-11T20:10:12;28.73;;;13.93;;
19032;SDS011;9649;51.042;13.804;2024-01-11T20:15:39;30.37;;;13.67;;
19032;SDS011;9649;51.042;13.804;2024-01-11T20:21:22;31.10;;;13.27;;
19032;SDS011;9649;51.042;13.804;2024-01-11T20:44:48;29.57;;;13.27;;
19032;SDS011;9649;51.042;13.804;2024-01-11T20:56:40;31.17;;;13.57;;
19032;SDS011;9649;51.042;13.804;2024-01-11T21:02:35;30.63;;;12.40;;
19032;SDS011;9649;51.042;13.804;2024-01-11T21:20:27;29.93;;;13.13;;
19032;SDS011;9649;51.042;13.804;2024-01-11T21:39:29;31.20;;;13.40;;
19032;SDS011;9649;51.042;13.804;2024-01-11T21:44:31;31.93;;;13.33;;
19032;SDS011;9649;51.042;13.804;2024-01-11T21:49:34;32.33;;;14.03;;
19032;SDS011;9649;51.042;13.804;2024-01-11T21:54:38;36.07;;;14.47;;
19032;SDS011;9649;51.042;13.804;2024-01-11T21:59:41;29.57;;;13.13;;
19032;SDS011;9649;51.042;13.804;2024-01-11T22:04:44;34.43;;;14.77;;
19032;SDS011;9649;51.042;13.804;2024-01-11T22:09:48;31.07;;;14.70;;
19032;SDS011;9649;51.042;13.804;2024-01-11T22:14:50;36.00;;;14.07;;
19032;SDS011;9649;51.042;13.804;2024-01-11T22:19:53;34.97;;;14.53;;
19032;SDS011;9649;51.042;13.804;2024-01-11T22:24:57;33.17;;;13.73;;
19032;SDS011;9649;51.042;13.804;2024-01-11T22:30:00;32.80;;;14.50;;
19032;SDS011;9649;51.042;13.804;2024-01-11T22:35:06;32.33;;;13.27;;
19032;SDS011;9649;51.042;13.804;2024-01-11T22:40:10;33.37;;;13.73;;
19032;SDS011;9649;51.042;13.804;2024-01-11T22:45:15;29.67;;;13.23;;
19032;SDS011;9649;51.042;13.804;2024-01-11T22:50:18;30.13;;;12.80;;
19032;SDS011;9649;51.042;13.804;2024-01-11T22:55:22;56.43;;;17.80;;
19032;SDS011;9649;51.042;13.804;2024-01-11T23:00:25;32.20;;;14.00;;
19032;SDS011;9649;51.042;13.804;2024-01-11T23:05:28;31.00;;;13.17;;
19032;SDS011;9649;51.042;13.804;2024-01-11T23:10:32;27.27;;;12.83;;
19032;SDS011;9649;51.042;13.804;2024-01-11T23:15:36;28.40;;;12.70;;
19032;SDS011;9649;51.042;13.804;2024-01-11T23:20:39;30.90;;;13.20;;
19032;SDS011;9649;51.042;13.804;2024-01-11T23:25:43;38.53;;;16.00;;
19032;SDS011;9649;51.042;13.804;2024-01-11T23:30:46;27.60;;;12.43;;
19032;SDS011;9649;51.042;13.804;2024-01-11T23:35:49;28.47;;;11.90;;
19032;SDS011;9649;51.042;13.804;2024-01-11T23:40:53;31.87;;;13.70;;
19032;SDS011;9649;51.042;13.804;2024-01-11T23:45:56;32.23;;;14.13;;
19032;SDS011;9649;51.042;13.804;2024-01-11T23:50:59;29.53;;;12.83;;
19032;SDS011;9649;51.042;13.804;2024-01-11T23:56:03;27.07;;;12.47;;
